Time;durP1;ratioP1;P1;durP2;ratioP2;P2;SDS_P1;SDS_P2;PMS_P1;PMS_P2;Temp;Humidity;BMP_temperature;BMP_pressure;BME280_temperature;BME280_humidity;BME280_pressure;Samples;Min_cycle;Max_cycle;Signal;HPM_P1;HPM_P2
2022/02/16 00:02:21;;;;;;;6.57;2.10;;;6.30;99.90;;;6.88;100.00;97531.19;5038293;28;20523;-76
2022/02/16 00:04:50;;;;;;;2.90;2.07;;;6.30;99.90;;;6.91;100.00;97525.63;5035382;28;20542;-76
2022/02/16 00:07:22;;;;;;;6.87;2.07;;;6.40;99.90;;;6.92;100.00;97527.25;5033950;28;20458;-76
2022/02/16 00:09:53;;;;;;;5.90;2.20;;;6.40;99.90;;;6.89;100.00;97527.59;5035252;28;20473;-76
2022/02/16 00:12:24;;;;;;;6.70;2.47;;;6.40;99.90;;;6.90;100.00;97521.44;5035051;28;20806;-76
2022/02/16 00:14:53;;;;;;;3.37;2.80;;;6.40;99.90;;;6.85;100.00;97518.53;5035843;28;20467;-76
2022/02/16 00:17:23;;;;;;;3.50;2.70;;;6.40;99.90;;;6.86;100.00;97515.78;5038114;28;20559;-75
2022/02/16 00:19:52;;;;;;;4.83;3.20;;;6.40;99.90;;;6.88;100.00;97510.41;5033108;28;20992;-76
2022/02/16 00:22:23;;;;;;;7.73;2.97;;;6.40;99.90;;;6.86;100.00;97505.38;5032362;28;20458;-76
2022/02/16 00:24:52;;;;;;;3.97;3.30;;;6.30;99.90;;;6.89;100.00;97512.03;5034048;28;20590;-76
2022/02/16 00:27:22;;;;;;;5.77;4.33;;;6.40;99.90;;;6.92;100.00;97509.06;5035090;28;20459;-75
2022/02/16 00:29:52;;;;;;;3.40;3.10;;;6.40;99.90;;;6.89;100.00;97499.84;5034977;28;21048;-76
2022/02/16 00:32:21;;;;;;;7.37;3.60;;;6.40;99.90;;;6.88;100.00;97503.41;5032982;28;20948;-76
2022/02/16 00:34:51;;;;;;;4.33;3.13;;;6.40;99.90;;;6.90;100.00;97492.84;5034240;28;20449;-76
2022/02/16 00:37:22;;;;;;;5.13;3.17;;;6.40;99.90;;;6.91;100.00;97492.66;5032549;28;20476;-75
2022/02/16 00:39:53;;;;;;;5.50;2.97;;;6.40;99.90;;;6.89;100.00;97483.44;5034484;28;20465;-76
2022/02/16 00:42:24;;;;;;;4.43;2.60;;;6.30;99.90;;;6.89;100.00;97478.22;5033506;28;20571;-76
2022/02/16 00:44:55;;;;;;;8.13;2.50;;;6.30;99.90;;;6.85;100.00;97479.56;5035180;28;20481;-75
2022/02/16 00:47:26;;;;;;;4.27;2.33;;;6.20;99.90;;;6.83;100.00;97466.78;5033681;28;20461;-76
2022/02/16 00:49:56;;;;;;;3.47;2.23;;;6.30;99.90;;;6.88;100.00;97474.81;5031918;28;20464;-75
2022/02/16 00:52:31;;;;;;;1.60;1.50;;;6.40;99.90;;;6.88;100.00;97466.22;5031893;28;20469;-75
2022/02/16 00:55:01;;;;;;;2.67;2.00;;;6.30;99.90;;;6.87;100.00;97465.41;5034619;28;20462;-76
2022/02/16 00:57:31;;;;;;;3.97;1.90;;;6.30;99.90;;;6.89;100.00;97466.06;5033569;28;21049;-76
2022/02/16 01:00:01;;;;;;;1.77;1.40;;;6.40;99.90;;;6.92;100.00;97446.69;5034013;28;21016;-76
2022/02/16 01:02:33;;;;;;;3.97;1.60;;;6.40;99.90;;;6.92;100.00;97446.69;5033850;28;20482;-76
2022/02/16 01:05:03;;;;;;;4.03;1.50;;;6.40;99.90;;;6.86;100.00;97442.22;5029570;28;20484;-76
2022/02/16 01:07:37;;;;;;;1.20;1.10;;;6.40;99.90;;;6.81;100.00;97434.94;5033225;28;20852;-75
2022/02/16 01:10:08;;;;;;;3.90;1.60;;;6.30;99.90;;;6.85;100.00;97430.19;5033778;28;21088;-76
2022/02/16 01:12:38;;;;;;;8.20;1.50;;;6.40;99.90;;;6.86;100.00;97439.63;5034038;28;20469;-76
2022/02/16 01:15:10;;;;;;;4.73;2.07;;;6.40;99.90;;;6.81;100.00;97440.16;5034044;28;20946;-76
2022/02/16 01:17:41;;;;;;;2.87;1.50;;;6.40;99.90;;;6.83;100.00;97443.38;5029603;28;20966;-75
2022/02/16 01:20:13;;;;;;;3.53;1.30;;;6.40;99.90;;;6.82;100.00;97438.34;5034714;28;20527;-76
2022/02/16 01:22:44;;;;;;;4.10;1.30;;;6.30;99.90;;;6.84;100.00;97436.38;5033799;28;20469;-76
2022/02/16 01:25:14;;;;;;;1.80;1.47;;;6.30;99.90;;;6.82;100.00;97426.16;5033367;28;20481;-76
2022/02/16 01:27:44;;;;;;;1.87;1.10;;;6.30;99.90;;;6.88;100.00;97419.44;5033504;28;20469;-75
2022/02/16 01:30:13;;;;;;;2.77;1.30;;;6.30;99.90;;;6.86;100.00;97419.63;5033441;28;20859;-76
2022/02/16 01:32:42;;;;;;;3.20;1.40;;;6.40;99.90;;;6.87;100.00;97417.84;5032613;28;20482;-75
2022/02/16 01:35:13;;;;;;;2.70;1.20;;;6.40;99.90;;;6.88;100.00;97403.84;5033997;28;20469;-75
2022/02/16 01:37:44;;;;;;;6.50;1.40;;;6.40;99.90;;;6.88;100.00;97398.66;5035614;28;20803;-76
2022/02/16 01:40:17;;;;;;;6.23;1.57;;;6.40;99.90;;;6.81;100.00;97402.97;5036578;28;20987;-75
2022/02/16 01:42:47;;;;;;;3.60;1.40;;;6.20;99.90;;;6.81;100.00;97403.75;5035709;28;20476;-75
2022/02/16 01:45:23;;;;;;;1.40;1.10;;;6.30;99.90;;;6.86;100.00;97395.44;5036514;28;20492;-76
2022/02/16 01:47:53;;;;;;;1.70;1.60;;;6.40;99.90;;;6.83;100.00;97388.00;5036202;28;20464;-75
2022/02/16 01:50:24;;;;;;;1.73;1.10;;;6.30;99.90;;;6.84;100.00;97379.22;5034617;28;20890;-75
2022/02/16 01:52:57;;;;;;;4.90;1.30;;;6.30;99.90;;;6.87;100.00;97374.47;5034617;28;20468;-76
2022/02/16 01:55:28;;;;;;;3.30;1.93;;;6.40;99.90;;;6.88;100.00;97375.25;5033581;28;20507;-76
2022/02/16 01:57:59;;;;;;;1.83;1.10;;;6.40;99.90;;;6.90;100.00;97365.50;5036078;28;20539;-76
2022/02/16 02:00:30;;;;;;;2.60;1.27;;;6.30;99.90;;;6.92;100.00;97364.34;5035388;28;20492;-75
2022/02/16 02:03:00;;;;;;;1.30;1.00;;;6.40;99.90;;;6.92;100.00;97360.94;5033373;28;20557;-76
2022/02/16 02:05:31;;;;;;;1.40;1.27;;;6.40;99.90;;;6.89;100.00;97361.28;5034240;28;20489;-75
2022/02/16 02:08:06;;;;;;;1.70;1.47;;;6.40;99.90;;;6.79;100.00;97360.78;5036736;28;20482;-76
2022/02/16 02:10:37;;;;;;;1.63;1.20;;;6.30;99.90;;;6.83;100.00;97354.22;5035493;28;21000;-75
2022/02/16 02:13:07;;;;;;;3.43;1.30;;;6.30;99.90;;;6.87;100.00;97355.50;5032071;28;20466;-76
2022/02/16 02:15:38;;;;;;;10.80;1.27;;;6.30;99.90;;;6.89;100.00;97348.31;5032353;28;20457;-76
2022/02/16 02:18:08;;;;;;;2.07;1.20;;;6.30;99.90;;;6.89;100.00;97340.50;5034769;28;20459;-76
2022/02/16 02:20:40;;;;;;;2.13;1.20;;;6.40;99.90;;;6.89;100.00;97337.91;5033538;28;20462;-76
2022/02/16 02:23:10;;;;;;;7.13;1.23;;;6.40;99.90;;;6.88;100.00;97337.09;5031984;28;21209;-76
2022/02/16 02:25:50;;;;;;;2.40;1.03;;;6.30;99.90;;;6.91;100.00;97330.72;5031545;28;20494;-75
2022/02/16 02:28:23;;;;;;;4.83;1.50;;;6.40;99.90;;;6.88;100.00;97316.31;5032887;28;20466;-76
2022/02/16 02:30:53;;;;;;;1.20;1.00;;;6.40;99.90;;;6.92;100.00;97308.97;5030403;28;20481;-76
2022/02/16 02:33:22;;;;;;;1.37;1.20;;;6.40;99.90;;;6.92;100.00;97308.97;5031273;28;20882;-76
2022/02/16 02:35:53;;;;;;;1.43;1.00;;;6.40;99.90;;;6.93;100.00;97307.97;5030358;28;20468;-76
2022/02/16 02:38:22;;;;;;;1.10;1.00;;;6.50;99.90;;;6.90;100.00;97308.34;5032510;28;20559;-75
2022/02/16 02:40:55;;;;;;;1.70;1.10;;;6.40;99.90;;;6.86;100.00;97307.91;5033060;28;20821;-76
2022/02/16 02:43:25;;;;;;;2.00;1.20;;;6.40;99.90;;;6.85;100.00;97310.66;5032730;28;21276;-76
2022/02/16 02:45:56;;;;;;;1.77;1.13;;;6.40;99.90;;;6.87;100.00;97304.28;5032932;28;20492;-75
2022/02/16 02:48:26;;;;;;;2.30;1.20;;;6.40;99.90;;;6.90;100.00;97303.16;5031786;28;20954;-75
2022/02/16 02:50:58;;;;;;;1.47;1.10;;;6.40;99.90;;;6.85;100.00;97282.91;5035397;28;20489;-76
2022/02/16 02:53:29;;;;;;;1.43;1.33;;;6.30;99.90;;;6.85;100.00;97279.50;5030645;28;20465;-76
2022/02/16 02:55:58;;;;;;;1.30;1.20;;;6.40;99.90;;;6.87;100.00;97280.91;5033395;28;20482;-76
2022/02/16 02:58:29;;;;;;;0.90;0.90;;;6.40;99.90;;;6.91;100.00;97265.75;5031469;28;20469;-75
2022/02/16 03:00:59;;;;;;;1.13;1.03;;;6.40;99.90;;;6.90;100.00;97267.59;5031474;28;20563;-76
2022/02/16 03:03:29;;;;;;;2.70;1.30;;;6.40;99.90;;;6.95;100.00;97262.63;5031864;28;21004;-76
2022/02/16 03:06:01;;;;;;;3.87;1.20;;;6.50;99.90;;;6.93;100.00;97259.41;5030286;28;20533;-76
2022/02/16 03:08:31;;;;;;;1.63;1.00;;;6.50;99.90;;;6.91;100.00;97260.56;5035323;28;21095;-75
2022/02/16 03:11:02;;;;;;;1.47;1.10;;;6.40;99.90;;;6.96;100.00;97251.25;5034673;28;20465;-76
2022/02/16 03:13:31;;;;;;;1.10;1.00;;;6.40;99.90;;;6.96;100.00;97248.66;5035307;28;20946;-76
2022/02/16 03:16:00;;;;;;;1.57;0.90;;;6.50;99.90;;;6.90;100.00;97243.38;5035242;28;20506;-75
2022/02/16 03:18:29;;;;;;;1.27;0.93;;;6.40;99.90;;;6.90;100.00;97241.59;5030199;28;20494;-76
2022/02/16 03:21:00;;;;;;;1.10;1.00;;;6.40;99.90;;;6.92;100.00;97254.38;5034267;28;20515;-75
2022/02/16 03:23:29;;;;;;;1.33;0.90;;;6.40;99.90;;;6.91;100.00;97253.56;5034344;28;20536;-75
2022/02/16 03:25:58;;;;;;;1.43;1.10;;;6.40;99.90;;;6.95;100.00;97259.22;5031470;28;20477;-76
2022/02/16 03:28:29;;;;;;;2.40;2.07;;;6.40;99.90;;;6.96;100.00;97255.63;5032787;28;20935;-76
2022/02/16 03:30:59;;;;;;;1.13;1.03;;;6.40;99.90;;;6.98;100.00;97251.03;5032549;28;20497;-75
2022/02/16 03:33:33;;;;;;;1.27;1.17;;;6.50;99.90;;;6.96;100.00;97250.44;5032923;28;20475;-76
2022/02/16 03:36:05;;;;;;;1.37;1.27;;;6.40;99.90;;;6.94;100.00;97258.41;5031804;28;20876;-76
2022/02/16 03:38:35;;;;;;;1.20;1.00;;;6.40;99.90;;;6.96;100.00;97245.25;5029186;28;20840;-76
2022/02/16 03:41:06;;;;;;;1.20;1.00;;;6.40;99.90;;;6.99;100.00;97239.66;5030756;28;20531;-76
2022/02/16 03:43:36;;;;;;;1.33;1.23;;;6.40;99.90;;;7.03;100.00;97251.31;5034010;28;20472;-75
2022/02/16 03:46:08;;;;;;;1.30;1.20;;;6.50;99.90;;;7.00;100.00;97251.69;5036474;28;20484;-76
2022/02/16 03:48:37;;;;;;;1.30;1.20;;;6.40;99.90;;;6.99;100.00;97253.47;5034111;28;20493;-75
2022/02/16 03:51:10;;;;;;;1.50;1.40;;;6.40;99.90;;;7.00;100.00;97251.69;5035219;28;20456;-76
2022/02/16 03:53:41;;;;;;;2.37;1.10;;;6.40;99.90;;;6.98;100.00;97251.03;5035984;28;20499;-76
2022/02/16 03:56:10;;;;;;;0.97;0.97;;;6.40;99.90;;;7.00;100.00;97243.88;5035344;28;20543;-79
2022/02/16 03:58:41;;;;;;;1.50;1.30;;;6.50;99.90;;;7.03;100.00;97240.91;5034027;28;20463;-76
2022/02/16 04:01:10;;;;;;;1.20;1.10;;;6.40;99.90;;;6.98;100.00;97238.06;5034431;28;20573;-76
2022/02/16 04:03:41;;;;;;;3.40;1.17;;;6.40;99.90;;;6.99;100.00;97229.28;5035680;28;20501;-76
2022/02/16 04:06:12;;;;;;;1.30;1.20;;;6.50;99.90;;;7.02;100.00;97215.91;5034986;28;20550;-76
2022/02/16 04:08:41;;;;;;;1.53;1.13;;;6.50;99.90;;;7.02;100.00;97223.69;5036939;28;20503;-76
2022/02/16 04:11:11;;;;;;;1.83;1.20;;;6.50;99.90;;;7.00;100.00;97204.91;5034876;28;20876;-77
2022/02/16 04:13:40;;;;;;;2.33;1.00;;;6.50;99.90;;;7.00;100.00;97204.91;5033874;28;20465;-76
2022/02/16 04:16:10;;;;;;;1.27;1.17;;;6.40;99.90;;;7.01;100.00;97206.53;5034664;28;20462;-77
2022/02/16 04:18:40;;;;;;;1.70;1.13;;;6.50;99.90;;;7.01;100.00;97203.91;5034955;28;20493;-76
2022/02/16 04:21:11;;;;;;;1.33;1.13;;;6.40;99.90;;;7.03;100.00;97197.53;5034469;28;20472;-76
2022/02/16 04:23:43;;;;;;;1.10;1.00;;;6.50;99.90;;;7.04;100.00;97204.34;5038148;28;20460;-76
2022/02/16 04:26:13;;;;;;;1.10;0.80;;;6.50;99.90;;;7.06;100.00;97204.16;5035325;28;20465;-76
2022/02/16 04:28:44;;;;;;;1.63;1.20;;;6.50;99.90;;;7.05;100.00;97197.34;5035338;28;20490;-76
2022/02/16 04:31:14;;;;;;;1.30;0.97;;;6.60;99.90;;;7.03;100.00;97209.72;5028955;28;20488;-76
2022/02/16 04:33:45;;;;;;;1.73;1.00;;;6.60;99.90;;;6.98;100.00;97192.09;5031438;28;20468;-83
2022/02/16 04:36:25;;;;;;;1.20;1.10;;;6.60;99.90;;;6.96;100.00;97203.66;5034669;28;20485;-76
2022/02/16 04:38:55;;;;;;;1.20;1.10;;;6.50;99.90;;;6.96;100.00;97196.66;5029663;28;20523;-76
2022/02/16 04:41:25;;;;;;;2.03;0.90;;;6.50;99.90;;;6.93;100.00;97191.03;5032930;28;20454;-76
2022/02/16 04:43:55;;;;;;;1.40;1.00;;;6.50;99.90;;;6.97;100.00;97180.09;5034132;28;20504;-76
2022/02/16 04:46:25;;;;;;;1.10;1.00;;;6.50;99.90;;;6.95;100.00;97182.06;5029296;28;20472;-85
2022/02/16 04:48:55;;;;;;;6.10;3.93;;;6.50;99.90;;;6.92;100.00;97173.81;5030994;28;20883;-78
2022/02/16 04:51:27;;;;;;;1.40;0.97;;;6.50;99.90;;;6.92;100.00;97176.44;5034531;28;20466;-76
2022/02/16 04:53:57;;;;;;;1.70;1.30;;;6.40;99.90;;;6.91;100.00;97174.81;5033356;28;20470;-76
2022/02/16 04:56:27;;;;;;;1.43;1.07;;;6.40;99.90;;;6.95;100.00;97173.44;5032815;28;20543;-76
2022/02/16 04:58:57;;;;;;;2.90;1.03;;;6.40;99.90;;;7.00;100.00;97165.91;5037962;28;20462;-76
2022/02/16 05:01:26;;;;;;;0.90;0.90;;;6.50;99.90;;;6.97;100.00;97161.91;5035395;28;20482;-76
2022/02/16 05:03:57;;;;;;;5.73;0.90;;;6.50;99.90;;;6.96;100.00;97168.09;5036946;28;20458;-76
2022/02/16 05:06:29;;;;;;;2.70;1.20;;;6.50;99.90;;;6.97;100.00;97163.69;5035870;28;20505;-76
2022/02/16 05:08:59;;;;;;;23.67;8.80;;;6.50;99.90;;;7.00;100.00;97178.91;5032263;28;20467;-84
2022/02/16 05:11:30;;;;;;;2.10;1.53;;;6.50;99.90;;;6.99;100.00;97164.31;5034882;28;20479;-78
2022/02/16 05:13:59;;;;;;;1.60;1.30;;;6.50;99.90;;;6.97;100.00;97164.50;5032960;28;20474;-76
2022/02/16 05:16:28;;;;;;;1.47;1.23;;;6.50;99.90;;;6.97;100.00;97168.91;5031966;28;20453;-76
2022/02/16 05:18:59;;;;;;;1.10;0.97;;;6.50;99.90;;;6.97;100.00;97167.09;5028381;28;20469;-75
2022/02/16 05:21:29;;;;;;;4.20;1.67;;;6.50;99.90;;;7.00;100.00;97147.72;5039587;28;20442;-87
2022/02/16 05:23:58;;;;;;;1.43;1.33;;;6.50;99.90;;;6.98;100.00;97154.88;5036918;28;20446;-77
2022/02/16 05:26:29;;;;;;;1.10;1.00;;;6.50;99.90;;;7.00;100.00;97147.72;5036541;28;20454;-75
2022/02/16 05:28:58;;;;;;;37.43;18.07;;;6.50;99.90;;;6.99;100.00;97136.53;5035639;28;20453;-77
2022/02/16 05:31:32;;;;;;;2.13;1.33;;;6.50;99.90;;;7.00;100.00;97137.34;5037441;28;20461;-75
2022/02/16 05:34:02;;;;;;;1.80;1.05;;;6.50;99.90;;;6.99;100.00;97131.31;5035668;28;20498;-75
2022/02/16 05:36:33;;;;;;;1.00;0.90;;;6.40;99.90;;;7.01;100.00;97141.53;5036540;28;20203;-75
2022/02/16 05:39:04;;;;;;;1.23;0.90;;;6.50;99.90;;;6.99;100.00;97133.13;5037453;28;21011;-75
2022/02/16 05:41:33;;;;;;;0.90;0.90;;;6.40;99.90;;;6.99;100.00;97136.53;5039389;28;20503;-75
2022/02/16 05:44:03;;;;;;;1.20;1.10;;;6.50;99.90;;;6.98;100.00;97139.28;5038285;28;20453;-75
2022/02/16 05:46:32;;;;;;;1.00;1.00;;;6.50;99.90;;;7.00;100.00;97126.94;5036878;28;20461;-75
2022/02/16 05:49:01;;;;;;;1.53;1.20;;;6.50;99.90;;;7.00;100.00;97116.53;5036534;28;20536;-75
2022/02/16 05:51:31;;;;;;;1.47;1.00;;;6.40;99.90;;;7.02;100.00;97110.16;5038816;28;20798;-75
2022/02/16 05:54:02;;;;;;;1.10;1.00;;;6.50;99.90;;;7.01;100.00;97102.56;5039705;28;20456;-75
2022/02/16 05:56:33;;;;;;;5.53;1.30;;;6.50;99.90;;;7.03;100.00;97096.19;5038832;28;20473;-75
2022/02/16 05:59:03;;;;;;;0.80;0.80;;;6.60;99.90;;;7.02;100.00;97091.16;5039280;28;20449;-75
2022/02/16 06:01:32;;;;;;;0.90;0.90;;;6.50;99.90;;;7.04;100.00;97082.19;5038926;28;20496;-75
2022/02/16 06:04:02;;;;;;;0.80;0.80;;;6.50;99.90;;;7.02;100.00;97085.97;5038537;28;20457;-75
2022/02/16 06:06:32;;;;;;;0.87;0.80;;;6.50;99.90;;;7.01;100.00;97097.38;5038320;28;20811;-75
2022/02/16 06:09:09;;;;;;;3.43;1.00;;;6.50;99.90;;;7.02;100.00;97094.56;5040442;28;20482;-75
2022/02/16 06:11:39;;;;;;;1.10;1.00;;;6.50;99.90;;;7.05;100.00;97090.78;5038291;28;20450;-75
2022/02/16 06:14:10;;;;;;;2.70;1.00;;;6.50;99.90;;;7.05;100.00;97082.97;5035044;28;20881;-75
2022/02/16 06:16:39;;;;;;;1.00;0.93;;;6.60;99.90;;;7.04;100.00;97077.00;5034675;28;20507;-75
2022/02/16 06:19:10;;;;;;;1.80;1.07;;;6.60;99.90;;;7.06;100.00;97074.19;5035656;28;20477;-75
2022/02/16 06:21:41;;;;;;;1.20;0.90;;;6.50;99.90;;;7.06;100.00;97064.59;5037904;28;20446;-75
2022/02/16 06:24:13;;;;;;;1.10;1.00;;;6.60;99.90;;;7.05;100.00;97063.00;5036311;28;20537;-75
2022/02/16 06:26:42;;;;;;;1.20;1.00;;;6.50;99.90;;;7.06;100.00;97066.41;5034601;28;20470;-75
2022/02/16 06:29:12;;;;;;;1.10;1.00;;;6.50;99.90;;;7.06;100.00;97074.19;5034187;28;20579;-75
2022/02/16 06:31:42;;;;;;;3.20;1.23;;;6.50;99.90;;;6.98;100.00;97062.13;5037081;28;20465;-75
2022/02/16 06:34:10;;;;;;;1.30;1.20;;;6.40;99.90;;;7.01;100.00;97061.75;5032787;28;20441;-75
2022/02/16 06:36:44;;;;;;;1.73;1.10;;;6.50;99.90;;;6.97;100.00;97076.16;5037471;28;20950;-75
2022/02/16 06:39:15;;;;;;;0.80;0.80;;;6.40;99.90;;;6.97;100.00;97067.53;5037172;28;20503;-75
2022/02/16 06:41:46;;;;;;;1.20;1.10;;;6.40;99.90;;;7.00;100.00;97061.97;5038977;28;20445;-75
2022/02/16 06:44:15;;;;;;;1.33;1.10;;;6.40;99.90;;;7.04;100.00;97066.59;5038736;28;20453;-75
2022/02/16 06:46:47;;;;;;;1.63;1.10;;;6.50;99.90;;;7.04;100.00;97081.38;5039283;28;20455;-75
2022/02/16 06:49:18;;;;;;;1.00;0.90;;;6.50;99.90;;;7.11;100.00;97071.03;5039842;28;20513;-75
2022/02/16 06:51:47;;;;;;;2.40;1.27;;;6.60;99.90;;;7.02;100.00;97065.16;5039000;28;20564;-75
2022/02/16 06:54:18;;;;;;;1.63;1.07;;;6.40;99.90;;;7.07;100.00;97070.63;5039158;28;20933;-75
2022/02/16 06:56:48;;;;;;;1.20;1.10;;;6.50;99.90;;;7.11;100.00;97071.84;5038531;28;20476;-75
2022/02/16 06:59:18;;;;;;;1.20;1.10;;;6.60;99.90;;;7.13;100.00;97062.06;5039331;28;20469;-75
2022/02/16 07:01:48;;;;;;;1.20;1.10;;;6.60;99.90;;;7.15;100.00;97062.66;5039220;28;20484;-75
2022/02/16 07:04:19;;;;;;;2.40;1.03;;;6.60;99.90;;;7.15;100.00;97054.06;5038644;28;20446;-75
2022/02/16 07:06:49;;;;;;;1.67;1.20;;;6.60;99.90;;;7.17;100.00;97054.69;5039540;28;20442;-75
2022/02/16 07:09:21;;;;;;;1.40;1.00;;;6.70;99.90;;;7.08;100.00;97046.22;5039610;28;20974;-75
2022/02/16 07:11:52;;;;;;;1.10;1.00;;;6.50;99.90;;;7.07;100.00;97049.81;5038317;28;20452;-75
2022/02/16 07:14:24;;;;;;;3.27;1.10;;;6.50;99.90;;;7.06;100.00;97058.59;5036791;28;21248;-75
2022/02/16 07:16:56;;;;;;;1.77;1.30;;;6.50;99.90;;;7.12;100.00;97047.44;5039215;28;20564;-75
2022/02/16 07:19:26;;;;;;;1.50;1.20;;;6.60;99.90;;;7.15;100.00;97036.66;5042715;28;20484;-75
2022/02/16 07:21:58;;;;;;;2.57;1.33;;;6.60;99.90;;;7.13;100.00;97030.84;5043257;28;20445;-75
2022/02/16 07:24:29;;;;;;;15.40;2.77;;;6.60;99.90;;;7.12;100.00;97042.25;5041912;28;20442;-75
2022/02/16 07:26:59;;;;;;;12.83;2.70;;;6.60;99.90;;;7.15;100.00;97033.28;5042816;28;20515;-75
2022/02/16 07:29:30;;;;;;;1.67;1.50;;;6.60;99.90;;;7.11;100.00;97019.06;5041980;28;20501;-75
2022/02/16 07:32:01;;;;;;;1.20;0.90;;;6.60;99.90;;;7.12;100.00;97025.84;5042570;28;20461;-75
2022/02/16 07:34:31;;;;;;;5.20;1.93;;;6.60;99.90;;;7.13;100.00;97028.25;5042713;28;20457;-75
2022/02/16 07:37:03;;;;;;;15.50;4.27;;;6.60;99.90;;;7.17;100.00;97026.09;5042164;28;20826;-75
2022/02/16 07:39:35;;;;;;;1.43;1.10;;;6.60;99.90;;;7.17;100.00;97024.28;5042067;28;20877;-75
2022/02/16 07:42:07;;;;;;;2.43;1.30;;;6.70;99.90;;;7.18;100.00;97014.69;5041812;28;20499;-75
2022/02/16 07:44:38;;;;;;;7.60;1.60;;;6.70;99.90;;;7.20;100.00;97023.09;5042811;28;20449;-75
2022/02/16 07:47:09;;;;;;;1.60;1.43;;;6.70;99.90;;;7.20;100.00;97029.09;5041630;28;20475;-75
2022/02/16 07:49:39;;;;;;;1.40;1.10;;;6.70;99.90;;;7.20;100.00;97029.09;5041471;28;20507;-75
2022/02/16 07:52:09;;;;;;;1.10;1.00;;;6.70;99.90;;;7.19;100.00;97017.09;5040325;28;20480;-75
2022/02/16 07:54:40;;;;;;;1.87;1.17;;;6.70;99.90;;;7.18;100.00;97019.91;5037743;28;20600;-75
2022/02/16 07:57:11;;;;;;;3.97;1.80;;;6.70;99.90;;;7.18;100.00;97025.91;5038437;28;20560;-75
2022/02/16 07:59:43;;;;;;;0.80;0.80;;;6.70;99.90;;;7.21;100.00;97009.91;5038244;28;20517;-75
2022/02/16 08:02:14;;;;;;;1.20;0.90;;;6.70;99.90;;;7.21;100.00;96994.31;5037239;28;20492;-75
2022/02/16 08:04:44;;;;;;;1.63;1.30;;;6.70;99.90;;;7.16;100.00;96998.47;5039756;28;20457;-75
2022/02/16 08:07:14;;;;;;;1.50;1.37;;;6.70;99.90;;;7.16;100.00;96995.88;5039794;28;20520;-75
2022/02/16 08:09:49;;;;;;;1.10;1.00;;;6.70;99.90;;;7.22;100.00;97000.34;5040139;28;20581;-75
2022/02/16 08:12:19;;;;;;;1.47;1.20;;;6.70;99.90;;;7.24;100.00;96996.53;5041366;28;20453;-75
2022/02/16 08:14:49;;;;;;;1.13;1.03;;;6.70;99.90;;;7.28;100.00;96996.97;5042243;28;20465;-75
2022/02/16 08:17:19;;;;;;;1.00;0.90;;;6.80;99.90;;;7.31;100.00;96989.56;5040159;28;20999;-75
2022/02/16 08:19:50;;;;;;;1.20;1.10;;;6.80;99.90;;;7.32;100.00;96986.00;5039001;28;20437;-76
2022/02/16 08:22:21;;;;;;;1.53;1.17;;;6.80;99.90;;;7.33;100.00;96987.56;5041732;28;20449;-75
2022/02/16 08:24:53;;;;;;;3.10;1.67;;;6.80;99.90;;;7.33;100.00;96984.97;5040648;28;20457;-75
2022/02/16 08:27:23;;;;;;;1.30;1.20;;;6.80;99.90;;;7.31;100.00;96989.56;5041626;28;20975;-75
2022/02/16 08:29:53;;;;;;;1.70;1.53;;;6.70;99.90;;;7.34;100.00;96978.78;5042010;28;20482;-75
2022/02/16 08:32:22;;;;;;;14.53;2.50;;;6.80;99.90;;;7.37;100.00;96972.38;5040808;28;20561;-75
2022/02/16 08:34:52;;;;;;;1.00;1.00;;;6.80;99.90;;;7.35;100.00;96975.19;5042787;28;20521;-75
2022/02/16 08:37:22;;;;;;;1.87;1.40;;;6.70;99.90;;;7.42;100.00;96976.03;5040661;28;20453;-76
2022/02/16 08:39:53;;;;;;;1.00;0.90;;;6.90;99.90;;;7.45;100.00;96970.44;5041794;28;20449;-75
2022/02/16 08:42:24;;;;;;;2.60;1.30;;;7.00;99.90;;;7.51;100.00;96969.66;5041502;28;20499;-75
2022/02/16 08:44:55;;;;;;;1.20;1.10;;;7.00;99.90;;;7.52;100.00;96968.66;5041424;28;20454;-75
2022/02/16 08:47:25;;;;;;;4.53;1.10;;;7.00;99.90;;;7.59;100.00;96953.09;5041749;28;20449;-75
2022/02/16 08:49:54;;;;;;;48.73;8.70;;;7.10;99.90;;;7.59;100.00;96963.50;5041654;28;20650;-75
2022/02/16 08:52:25;;;;;;;8.57;1.97;;;7.00;99.90;;;7.61;100.00;96948.47;5041070;28;20457;-75
2022/02/16 08:54:56;;;;;;;0.90;0.90;;;7.10;99.90;;;7.65;100.00;96948.88;5039116;28;20524;-75
2022/02/16 08:57:26;;;;;;;21.37;4.03;;;7.20;99.90;;;7.55;100.00;96944.88;5039976;28;20916;-75
2022/02/16 08:59:56;;;;;;;3.37;1.60;;;7.00;99.90;;;7.65;100.00;96957.50;5041756;28;20441;-75
2022/02/16 09:02:26;;;;;;;1.10;1.00;;;7.10;99.90;;;7.71;100.00;96963.72;5040655;28;20525;-75
2022/02/16 09:04:57;;;;;;;0.90;0.90;;;7.20;99.90;;;7.73;100.00;96961.72;5040897;28;20530;-75
2022/02/16 09:07:30;;;;;;;9.67;1.30;;;7.30;99.90;;;7.72;100.00;96958.31;5041676;28;20457;-75
2022/02/16 09:10:07;;;;;;;1.20;1.10;;;7.30;99.90;;;7.73;100.00;96961.72;5036853;28;20515;-75
2022/02/16 09:12:38;;;;;;;1.03;0.90;;;7.20;99.90;;;7.75;100.00;96962.31;5040163;28;20532;-75
2022/02/16 09:15:09;;;;;;;1.20;1.10;;;7.20;99.90;;;7.76;100.00;96975.16;5040536;28;20834;-75
2022/02/16 09:17:39;;;;;;;0.97;0.87;;;7.30;99.90;;;7.83;100.00;96964.75;5040104;28;20872;-75
2022/02/16 09:20:12;;;;;;;1.10;1.00;;;7.30;99.90;;;7.86;100.00;96969.56;5039533;28;20458;-75
2022/02/16 09:22:42;;;;;;;12.80;1.80;;;7.40;99.90;;;7.85;100.00;96957.53;5041791;28;20464;-75
2022/02/16 09:25:13;;;;;;;1.17;1.07;;;7.30;99.90;;;7.84;100.00;96953.34;5039364;28;20528;-75
2022/02/16 09:27:43;;;;;;;0.87;0.80;;;7.20;99.90;;;7.87;100.00;96952.97;5036710;28;20446;-75
2022/02/16 09:30:14;;;;;;;1.10;0.90;;;7.30;99.90;;;7.92;100.00;96945.34;5037667;28;20500;-75
2022/02/16 09:32:43;;;;;;;1.47;0.80;;;7.40;99.90;;;7.87;100.00;96947.75;5036653;28;20484;-75
2022/02/16 09:35:12;;;;;;;1.00;0.90;;;7.40;99.90;;;7.81;100.00;96922.53;5035869;28;20452;-75
2022/02/16 09:37:42;;;;;;;0.90;0.90;;;7.20;99.90;;;7.84;100.00;96922.13;5039204;28;20457;-75
2022/02/16 09:40:13;;;;;;;2.60;1.13;;;7.30;99.90;;;7.89;100.00;96928.34;5033409;28;20450;-75
2022/02/16 09:42:44;;;;;;;1.10;1.00;;;7.40;99.90;;;7.90;100.00;96926.53;5034255;28;20447;-75
2022/02/16 09:45:16;;;;;;;1.20;1.00;;;7.30;99.90;;;7.98;100.00;96913.34;5036635;28;20545;-75
2022/02/16 09:47:46;;;;;;;1.20;1.03;;;7.50;99.90;;;8.01;100.00;96902.53;5037100;28;20494;-75
2022/02/16 09:50:17;;;;;;;1.17;1.07;;;7.50;99.90;;;8.02;100.00;96914.53;5036016;28;20597;-75
2022/02/16 09:52:47;;;;;;;1.20;1.10;;;7.50;99.90;;;8.11;100.00;96923.78;5035430;28;20874;-75
2022/02/16 09:55:18;;;;;;;1.33;1.10;;;7.60;99.90;;;8.12;100.00;96930.59;5037328;28;20473;-75
2022/02/16 09:57:50;;;;;;;7.53;1.70;;;7.70;99.90;;;8.15;100.00;96934.59;5037319;28;20568;-75
2022/02/16 10:00:19;;;;;;;6.83;1.27;;;7.60;99.90;;;8.14;100.00;96928.56;5036834;28;20502;-75
2022/02/16 10:02:48;;;;;;;43.53;7.20;;;7.70;99.90;;;8.13;100.00;96942.59;5036314;28;20537;-75
2022/02/16 10:05:20;;;;;;;23.00;5.00;;;7.60;99.90;;;8.16;100.00;96936.19;5035961;28;20837;-75
2022/02/16 10:07:51;;;;;;;9.20;1.83;;;7.70;99.90;;;8.22;100.00;96944.00;5035882;28;20854;-75
2022/02/16 10:10:26;;;;;;;1.00;0.90;;;7.80;99.90;;;8.28;100.00;96917.19;5038831;28;20481;-75
2022/02/16 10:13:02;;;;;;;1.43;1.33;;;7.80;99.90;;;8.27;100.00;96922.56;5039941;28;20454;-75
2022/02/16 10:15:45;;;;;;;0.80;0.80;;;7.80;99.90;;;8.27;100.00;96933.78;5040911;28;20575;-75
2022/02/16 10:18:18;;;;;;;0.90;0.90;;;7.80;99.90;;;8.36;100.00;96932.63;5039992;28;20453;-75
2022/02/16 10:20:50;;;;;;;1.13;1.03;;;7.90;99.90;;;8.32;100.00;96938.44;5037407;28;20457;-75
2022/02/16 10:23:41;;;;;;;1.43;1.20;;;7.90;99.90;;;8.30;100.00;96943.81;5039929;28;20458;-75
2022/02/16 10:26:13;;;;;;;1.17;1.07;;;7.80;99.90;;;8.36;100.00;96957.88;5035485;28;20453;-75
2022/02/16 10:28:44;;;;;;;0.90;0.90;;;7.90;99.90;;;8.41;100.00;96961.47;5039261;28;21102;-75
2022/02/16 10:31:15;;;;;;;9.07;2.33;;;8.00;99.90;;;8.42;100.00;96944.84;5038600;28;20596;-75
2022/02/16 10:33:47;;;;;;;4.50;1.73;;;8.00;99.90;;;8.39;100.00;96924.41;5039766;28;20449;-75
2022/02/16 10:36:22;;;;;;;4.33;1.80;;;7.90;99.90;;;8.40;100.00;96933.81;5039292;28;20961;-75
2022/02/16 10:38:56;;;;;;;1.57;1.27;;;7.80;99.90;;;8.40;100.00;96935.63;5038629;28;20446;-75
2022/02/16 10:41:30;;;;;;;1.30;1.20;;;7.80;99.90;;;8.47;100.00;96945.03;5038969;28;20449;-75